Time;durP1;ratioP1;P1;durP2;ratioP2;P2;SDS_P1;SDS_P2;PMS_P1;PMS_P2;Temp;Humidity;BMP_temperature;BMP_pressure;BME280_temperature;BME280_humidity;BME280_pressure;Samples;Min_cycle;Max_cycle;Signal;HPM_P1;HPM_P2
2021/12/13 00:02:25;;;;;;;7.30;2.38;;;;;;;9.28;100.00;101405.72;5115479;27;20530;-51
2021/12/13 00:05:00;;;;;;;7.40;2.30;;;;;;;9.27;100.00;101409.28;5115702;28;20533;-49
2021/12/13 00:07:30;;;;;;;6.38;2.20;;;;;;;9.35;100.00;101395.72;5115710;28;20503;-51
2021/12/13 00:10:03;;;;;;;12.77;2.83;;;;;;;9.39;100.00;101391.16;5115910;28;20051;-51
2021/12/13 00:12:37;;;;;;;7.53;2.80;;;;;;;9.34;100.00;101398.44;5116511;28;20059;-50
2021/12/13 00:15:12;;;;;;;7.55;2.95;;;;;;;9.33;100.00;101394.06;5115558;28;20430;-51
2021/12/13 00:17:45;;;;;;;6.22;2.75;;;;;;;9.37;100.00;101387.72;5116098;28;20059;-51
2021/12/13 00:20:20;;;;;;;13.02;5.07;;;;;;;9.34;100.00;101382.56;5115078;28;20047;-50
2021/12/13 00:22:50;;;;;;;8.02;3.10;;;;;;;9.33;100.00;101391.41;5115146;27;20066;-51
2021/12/13 00:25:20;;;;;;;10.90;3.30;;;;;;;9.35;100.00;101389.59;5115015;28;20051;-49
2021/12/13 00:27:51;;;;;;;53.80;16.13;;;;;;;9.37;100.00;101385.06;5116164;28;20047;-51
2021/12/13 00:30:28;;;;;;;22.25;6.72;;;;;;;9.34;100.00;101378.09;5116464;28;20052;-51
2021/12/13 00:33:07;;;;;;;16.23;5.05;;;;;;;9.30;100.00;101377.38;5115563;28;20051;-51
2021/12/13 00:35:42;;;;;;;14.57;5.30;;;;;;;9.21;100.00;101391.03;5115178;28;20056;-49
2021/12/13 00:38:12;;;;;;;30.10;11.23;;;;;;;9.19;100.00;101384.91;5114766;28;20062;-51
2021/12/13 00:40:45;;;;;;;20.90;7.07;;;;;;;9.19;100.00;101378.78;5114967;28;20059;-50
2021/12/13 00:43:18;;;;;;;21.45;8.02;;;;;;;9.22;100.00;101379.50;5116161;28;20063;-51
2021/12/13 00:45:54;;;;;;;12.40;3.45;;;;;;;9.24;100.00;101372.34;5114720;28;20422;-49
2021/12/13 00:48:25;;;;;;;10.65;3.25;;;;;;;9.24;100.00;101369.69;5115533;28;20055;-50
2021/12/13 00:51:01;;;;;;;7.40;3.05;;;;;;;9.23;100.00;101365.34;5114637;28;20063;-49
2021/12/13 00:53:33;;;;;;;11.35;2.53;;;;;;;9.25;100.00;101367.94;5114933;28;20067;-48
2021/12/13 00:56:40;;;;;;;5.85;2.78;;;;;;;9.25;100.00;101363.50;5116029;28;20078;-50
2021/12/13 00:59:09;;;;;;;12.70;3.70;;;;;;;9.35;100.00;101363.09;5114419;28;20055;-51
2021/12/13 01:01:39;;;;;;;11.52;3.22;;;;;;;9.37;100.00;101367.41;5114689;28;20503;-51
2021/12/13 01:04:10;;;;;;;9.77;2.45;;;;;;;9.41;100.00;101360.16;5114453;28;20055;-51
2021/12/13 01:07:23;;;;;;;4.68;1.77;;;;;;;9.39;100.00;101356.75;5114853;28;20507;-51
2021/12/13 01:10:27;;;;;;;8.10;2.20;;;;;;;9.35;100.00;101353.38;5114394;28;20052;-51
2021/12/13 01:12:57;;;;;;;7.47;2.35;;;;;;;9.30;100.00;101350.91;5084743;28;20396;-51
2021/12/13 01:15:32;;;;;;;6.20;1.90;;;;;;;9.39;100.00;101349.66;5114304;28;20062;-51
2021/12/13 01:18:24;;;;;;;9.75;2.40;;;;;;;9.31;100.00;101349.13;5114956;28;20055;-49
2021/12/13 01:21:02;;;;;;;8.90;2.20;;;;;;;9.23;100.00;101352.09;5114487;28;20068;-50
2021/12/13 01:23:44;;;;;;;8.65;2.15;;;;;;;9.24;100.00;101351.16;5114301;28;20058;-51
2021/12/13 01:26:34;;;;;;;6.80;1.75;;;;;;;9.21;100.00;101351.31;5114245;28;20067;-51
2021/12/13 01:29:08;;;;;;;8.90;2.80;;;;;;;9.32;100.00;101347.34;5114472;28;20059;-50
2021/12/13 01:31:39;;;;;;;4.93;2.15;;;;;;;9.29;100.00;101343.88;5115325;28;20066;-48
2021/12/13 01:34:10;;;;;;;9.77;3.23;;;;;;;9.25;100.00;101337.00;5115031;28;20055;-50
2021/12/13 01:36:46;;;;;;;9.18;2.50;;;;;;;9.26;100.00;101349.34;5114175;28;20507;-51
2021/12/13 01:39:17;;;;;;;8.27;3.03;;;;;;;9.29;100.00;101348.31;5114103;28;20062;-51
2021/12/13 01:41:48;;;;;;;7.45;2.70;;;;;;;9.28;100.00;101341.34;5115481;28;20066;-49
2021/12/13 01:44:19;;;;;;;10.40;3.95;;;;;;;9.19;100.00;101339.91;5114421;28;20403;-51
2021/12/13 01:46:52;;;;;;;10.90;2.80;;;;;;;9.19;100.00;101336.41;5115017;28;20435;-50
2021/12/13 01:49:26;;;;;;;6.20;2.30;;;;;;;9.23;100.00;101340.63;5115248;28;20052;-50
2021/12/13 01:51:54;;;;;;;12.80;2.50;;;;;;;9.21;100.00;101340.72;5114015;28;20059;-51
2021/12/13 01:54:23;;;;;;;7.32;3.15;;;;;;;9.20;100.00;101332.84;5115439;28;20059;-49
2021/12/13 01:56:57;;;;;;;11.70;3.72;;;;;;;9.21;100.00;101330.16;5114499;28;20495;-51
2021/12/13 01:59:42;;;;;;;7.70;3.33;;;;;;;9.17;100.00;101338.28;5115827;28;20060;-49
2021/12/13 02:02:15;;;;;;;9.90;3.22;;;;;;;9.10;100.00;101337.69;5114132;28;20469;-51
2021/12/13 02:04:47;;;;;;;7.80;3.30;;;;;;;9.04;100.00;101327.34;5114802;28;20062;-51
2021/12/13 02:07:15;;;;;;;10.70;3.35;;;;;;;9.16;100.00;101342.69;5114028;28;20060;-50
2021/12/13 02:09:45;;;;;;;15.27;3.22;;;;;;;9.13;100.00;101332.25;5115262;28;20056;-51
2021/12/13 02:12:16;;;;;;;12.25;3.25;;;;;;;9.15;100.00;101338.34;5114270;28;20064;-49
2021/12/13 02:14:49;;;;;;;19.85;3.30;;;;;;;9.09;100.00;101336.84;5115221;28;20078;-51
2021/12/13 02:17:22;;;;;;;7.28;2.97;;;;;;;9.18;100.00;101343.50;5114967;28;20086;-50
2021/12/13 02:19:57;;;;;;;7.95;2.80;;;;;;;9.16;100.00;101337.41;5117795;28;20063;-49
2021/12/13 02:22:39;;;;;;;7.57;2.63;;;;;;;9.12;100.00;101335.81;5117401;28;20059;-51
2021/12/13 02:25:25;;;;;;;13.15;2.85;;;;;;;9.11;100.00;101334.97;5118465;28;20051;-49
2021/12/13 02:27:59;;;;;;;10.27;3.47;;;;;;;9.08;100.00;101328.94;5118251;27;20048;-50
2021/12/13 02:30:32;;;;;;;7.85;3.13;;;;;;;9.05;100.00;101329.94;5118122;28;20420;-48
2021/12/13 02:33:01;;;;;;;9.63;2.78;;;;;;;8.98;100.00;101306.44;5117872;28;20062;-51
2021/12/13 02:35:33;;;;;;;7.22;2.88;;;;;;;9.07;100.00;101321.94;5117245;28;20052;-50
2021/12/13 02:38:05;;;;;;;6.70;2.55;;;;;;;9.06;100.00;101325.50;5117481;28;20418;-50
2021/12/13 02:40:33;;;;;;;;;;;;;;;9.03;100.00;101323.84;5117509;28;20064;-51
2021/12/13 02:43:01;;;;;;;7.70;2.35;;;;;;;9.03;100.00;101312.41;5117249;28;19919;-51
2021/12/13 02:45:34;;;;;;;9.68;2.58;;;;;;;9.04;100.00;101322.91;5117329;28;20056;-50
2021/12/13 02:48:06;;;;;;;5.78;2.08;;;;;;;9.02;100.00;101318.63;5117806;28;20087;-49
2021/12/13 02:50:42;;;;;;;6.22;2.03;;;;;;;9.04;100.00;101322.06;5116926;28;20052;-50
2021/12/13 02:53:14;;;;;;;6.10;2.17;;;;;;;9.10;100.00;101321.78;5117990;28;20083;-51
2021/12/13 02:55:42;;;;;;;8.88;2.30;;;;;;;9.14;100.00;101320.72;5116805;28;20052;-50
2021/12/13 02:58:14;;;;;;;5.28;2.33;;;;;;;9.08;100.00;101318.38;5117253;28;20056;-51
2021/12/13 03:00:48;;;;;;;4.47;1.90;;;;;;;9.10;100.00;101319.16;5116766;27;20507;-51
2021/12/13 03:03:19;;;;;;;10.43;2.80;;;;;;;9.03;100.00;101320.34;5116570;28;20059;-49
2021/12/13 03:05:50;;;;;;;11.23;2.40;;;;;;;8.95;100.00;101322.47;5116645;28;20052;-50
2021/12/13 03:08:24;;;;;;;9.98;2.55;;;;;;;8.89;100.00;101320.91;5117461;28;20047;-51
2021/12/13 03:10:55;;;;;;;6.97;2.40;;;;;;;8.78;100.00;101318.72;5117441;28;20063;-51
2021/12/13 03:13:24;;;;;;;5.75;1.95;;;;;;;8.72;100.00;101311.03;5116803;28;20063;-51
2021/12/13 03:15:59;;;;;;;5.43;1.77;;;;;;;8.72;100.00;101326.91;5117031;28;20081;-51
2021/12/13 03:18:39;;;;;;;8.52;2.05;;;;;;;8.65;100.00;101320.16;5116698;28;20059;-50
2021/12/13 03:21:25;;;;;;;6.35;1.80;;;;;;;8.63;100.00;101316.72;5117196;28;20056;-51
2021/12/13 03:24:07;;;;;;;5.10;1.30;;;;;;;8.64;100.00;101318.44;5117318;28;20056;-51
2021/12/13 03:26:56;;;;;;;3.42;1.10;;;;;;;8.69;100.00;101316.44;5117385;27;20051;-51
2021/12/13 03:29:30;;;;;;;1.95;1.08;;;;;;;8.66;100.00;101311.31;5115871;28;20075;-51
2021/12/13 03:32:00;;;;;;;4.40;1.33;;;;;;;8.69;100.00;101305.88;5116140;28;20055;-49
2021/12/13 03:34:30;;;;;;;1.75;0.90;;;;;;;8.69;100.00;101303.22;5116061;28;20490;-51
2021/12/13 03:37:02;;;;;;;3.22;0.90;;;;;;;8.70;100.00;101291.72;5116286;28;20491;-51
2021/12/13 03:39:35;;;;;;;2.97;0.95;;;;;;;8.70;100.00;101297.03;5116896;28;20406;-51
2021/12/13 03:42:08;;;;;;;4.35;0.75;;;;;;;8.73;100.00;101286.31;5116119;28;20576;-51
2021/12/13 03:44:40;;;;;;;0.93;0.70;;;;;;;8.78;100.00;101284.34;5117042;28;20051;-51
2021/12/13 03:47:13;;;;;;;3.25;0.82;;;;;;;8.75;100.00;101289.75;5116735;28;20086;-50
2021/12/13 03:49:44;;;;;;;3.03;0.77;;;;;;;8.73;100.00;101287.16;5116337;28;20051;-51
2021/12/13 03:52:15;;;;;;;1.02;0.80;;;;;;;8.78;100.00;101281.69;5115803;27;20514;-51
2021/12/13 03:54:46;;;;;;;2.33;0.98;;;;;;;8.74;100.00;101277.44;5116274;28;20483;-49
2021/12/13 03:57:16;;;;;;;0.80;0.65;;;;;;;8.80;100.00;101279.84;5115412;28;20071;-51
2021/12/13 03:59:46;;;;;;;2.55;0.90;;;;;;;8.80;100.00;101276.34;5115580;28;20051;-49
2021/12/13 04:02:18;;;;;;;3.80;1.08;;;;;;;8.84;100.00;101281.44;5115747;28;20503;-51
2021/12/13 04:04:49;;;;;;;2.28;0.63;;;;;;;8.79;100.00;101274.59;5115478;28;20091;-51
2021/12/13 04:07:23;;;;;;;3.20;0.98;;;;;;;8.80;100.00;101281.63;5115445;28;20056;-51
2021/12/13 04:09:56;;;;;;;1.42;0.70;;;;;;;8.78;100.00;101272.91;5115412;28;20388;-50
2021/12/13 04:12:30;;;;;;;3.05;0.80;;;;;;;8.72;100.00;101274.00;5116008;28;20434;-51
2021/12/13 04:15:03;;;;;;;2.83;1.00;;;;;;;8.71;100.00;101277.59;5116216;28;20063;-51
2021/12/13 04:17:41;;;;;;;;;;;;;;;8.73;100.00;101279.22;5116591;27;20058;-51
2021/12/13 04:20:14;;;;;;;3.13;0.90;;;;;;;8.69;100.00;101282.06;5116551;28;19927;-50
2021/12/13 04:22:49;;;;;;;3.97;1.00;;;;;;;8.63;100.00;101279.69;5116248;28;20052;-51
2021/12/13 04:25:21;;;;;;;1.60;1.13;;;;;;;8.59;100.00;101272.78;5116461;28;20058;-51
2021/12/13 04:27:56;;;;;;;1.70;1.05;;;;;;;8.55;100.00;101272.91;5115356;28;20423;-51
2021/12/13 04:30:29;;;;;;;2.72;0.90;;;;;;;8.55;100.00;101267.63;5116121;28;20063;-51
2021/12/13 04:33:01;;;;;;;1.15;0.85;;;;;;;8.54;100.00;101265.94;5115619;28;20056;-51
2021/12/13 04:35:30;;;;;;;1.33;0.77;;;;;;;8.51;100.00;101260.75;5115986;28;20069;-51
2021/12/13 04:38:01;;;;;;;1.30;0.70;;;;;;;8.55;100.00;101257.06;5115369;28;20059;-51
2021/12/13 04:40:32;;;;;;;1.60;1.07;;;;;;;8.54;100.00;101252.72;5114450;28;20055;-50
2021/12/13 04:43:05;;;;;;;2.90;1.00;;;;;;;8.51;100.00;101263.41;5114555;28;20058;-51
2021/12/13 04:45:34;;;;;;;1.27;0.98;;;;;;;8.53;100.00;101261.56;5114714;28;20052;-50
2021/12/13 04:48:06;;;;;;;1.73;0.80;;;;;;;8.55;100.00;101256.19;5115208;28;20063;-50
2021/12/13 04:50:38;;;;;;;2.55;1.27;;;;;;;8.52;100.00;101262.50;5114693;28;20058;-51
2021/12/13 04:53:18;;;;;;;2.42;1.10;;;;;;;8.51;100.00;101260.75;5115504;28;20060;-51
2021/12/13 04:55:48;;;;;;;5.20;1.27;;;;;;;8.46;100.00;101254.81;5115181;28;20071;-51
2021/12/13 04:58:18;;;;;;;4.03;1.30;;;;;;;8.54;100.00;101263.28;5115316;28;20062;-51
2021/12/13 05:00:49;;;;;;;4.65;1.55;;;;;;;8.61;100.00;101266.53;5115593;28;20411;-51
2021/12/13 05:03:21;;;;;;;2.60;1.00;;;;;;;8.61;100.00;101260.38;5115598;28;20055;-50
2021/12/13 05:05:50;;;;;;;3.03;1.30;;;;;;;8.60;100.00;101256.03;5114445;28;20052;-51
2021/12/13 05:08:21;;;;;;;2.45;1.30;;;;;;;8.58;100.00;101263.16;5114614;28;20063;-51
2021/12/13 05:10:52;;;;;;;5.07;1.27;;;;;;;8.61;100.00;101263.00;5115818;28;20058;-51
2021/12/13 05:13:23;;;;;;;6.03;1.30;;;;;;;8.55;100.00;101262.34;5115278;28;20067;-51
2021/12/13 05:15:58;;;;;;;3.57;1.70;;;;;;;8.55;100.00;101264.97;5115222;28;20054;-51
2021/12/13 05:18:29;;;;;;;2.53;1.48;;;;;;;8.53;100.00;101266.84;5115690;28;20052;-51
2021/12/13 05:21:01;;;;;;;4.25;1.88;;;;;;;8.52;100.00;101270.44;5114911;28;20505;-50
2021/12/13 05:23:32;;;;;;;5.60;1.80;;;;;;;8.47;100.00;101267.13;5115346;28;20078;-50
2021/12/13 05:26:04;;;;;;;3.45;1.80;;;;;;;8.39;100.00;101271.81;5114260;28;20062;-49
2021/12/13 05:28:39;;;;;;;9.25;2.10;;;;;;;8.34;100.00;101265.88;5114273;28;20070;-51
2021/12/13 05:31:10;;;;;;;2.90;1.88;;;;;;;8.34;100.00;101264.06;5114540;28;20059;-49
2021/12/13 05:33:42;;;;;;;5.85;2.05;;;;;;;8.31;100.00;101261.53;5115050;28;20059;-51
2021/12/13 05:36:12;;;;;;;4.68;1.95;;;;;;;8.30;100.00;101256.31;5114140;28;20063;-51
2021/12/13 05:38:42;;;;;;;6.53;2.00;;;;;;;8.27;100.00;101257.31;5114213;28;20070;-50
2021/12/13 05:41:19;;;;;;;5.38;1.88;;;;;;;8.28;100.00;101261.66;5115537;28;20055;-51
2021/12/13 05:43:50;;;;;;;4.97;1.95;;;;;;;8.22;100.00;101261.06;5113987;28;20062;-51
2021/12/13 05:46:23;;;;;;;6.63;3.07;;;;;;;8.27;100.00;101261.72;5114064;28;20059;-48
2021/12/13 05:48:54;;;;;;;3.30;2.10;;;;;;;8.25;100.00;101267.06;5115431;28;20078;-48
2021/12/13 05:51:28;;;;;;;4.53;2.10;;;;;;;8.24;100.00;101261.84;5114298;28;20059;-48
2021/12/13 05:54:01;;;;;;;5.78;2.10;;;;;;;8.23;100.00;101270.72;5118500;28;20173;-51
2021/12/13 05:56:36;;;;;;;3.28;2.15;;;;;;;8.29;100.00;101273.13;5119024;28;20055;-51
2021/12/13 05:59:19;;;;;;;3.72;1.98;;;;;;;8.26;100.00;101286.47;5118216;28;20075;-50
2021/12/13 06:02:01;;;;;;;5.60;2.33;;;;;;;8.26;100.00;101295.25;5118734;28;20424;-51
2021/12/13 06:04:36;;;;;;;3.40;2.00;;;;;;;8.23;100.00;101299.78;5119046;28;20453;-51
2021/12/13 06:07:17;;;;;;;4.93;2.42;;;;;;;8.28;100.00;101305.75;5118831;28;20278;-51
2021/12/13 06:09:58;;;;;;;5.47;2.35;;;;;;;8.22;100.00;101305.97;5118854;28;20056;-51
2021/12/13 06:12:40;;;;;;;6.10;2.70;;;;;;;8.24;100.00;101309.41;5119025;28;20067;-51
2021/12/13 06:15:24;;;;;;;4.82;2.45;;;;;;;8.29;100.00;101312.78;5117806;28;20052;-51
2021/12/13 06:17:56;;;;;;;5.97;2.45;;;;;;;8.31;100.00;101316.22;5118142;28;20056;-51
2021/12/13 06:20:27;;;;;;;5.82;2.60;;;;;;;8.27;100.00;101319.88;5117773;28;20423;-50
2021/12/13 06:23:05;;;;;;;5.80;2.22;;;;;;;8.27;100.00;101325.16;5118359;28;20055;-51
2021/12/13 06:25:34;;;;;;;5.18;2.50;;;;;;;8.25;100.00;101317.28;5118206;27;20063;-49
2021/12/13 06:28:05;;;;;;;6.80;2.35;;;;;;;8.22;100.00;101322.72;5118185;28;20058;-51
2021/12/13 06:30:38;;;;;;;4.28;2.58;;;;;;;8.16;100.00;101315.88;5118778;28;20070;-51
2021/12/13 06:33:08;;;;;;;6.78;2.75;;;;;;;8.13;100.00;101316.00;5117996;28;20059;-50
2021/12/13 06:35:47;;;;;;;6.60;2.80;;;;;;;8.14;100.00;101315.09;5118297;28;20070;-51
2021/12/13 06:38:32;;;;;;;5.68;2.47;;;;;;;8.13;100.00;101315.13;5117512;28;20055;-50
2021/12/13 06:41:04;;;;;;;4.22;2.50;;;;;;;8.12;100.00;101314.28;5116984;28;20058;-51
2021/12/13 06:43:38;;;;;;;6.60;2.70;;;;;;;8.08;100.00;101309.19;5117050;28;20522;-49
2021/12/13 06:46:10;;;;;;;5.32;2.88;;;;;;;8.07;100.00;101307.44;5117571;28;20360;-51
2021/12/13 06:48:42;;;;;;;9.50;2.83;;;;;;;8.07;100.00;101313.59;5116954;28;20109;-51
2021/12/13 06:51:13;;;;;;;7.68;2.80;;;;;;;8.04;100.00;101321.66;5116663;28;20051;-51
2021/12/13 06:53:42;;;;;;;4.85;3.13;;;;;;;8.02;100.00;101319.97;5117399;28;20109;-51
2021/12/13 06:56:22;;;;;;;6.90;3.40;;;;;;;7.98;100.00;101335.97;5116619;28;20564;-51
2021/12/13 06:58:58;;;;;;;9.68;3.30;;;;;;;7.95;100.00;101329.91;5118041;28;20063;-51
2021/12/13 07:01:27;;;;;;;7.80;3.45;;;;;;;7.97;100.00;101341.31;5117722;28;20055;-50
2021/12/13 07:04:00;;;;;;;7.60;4.47;;;;;;;8.00;100.00;101338.53;5116141;28;20063;-49
2021/12/13 07:06:29;;;;;;;9.13;3.40;;;;;;;7.95;100.00;101335.19;5116423;28;20418;-50
2021/12/13 07:09:07;;;;;;;10.35;4.30;;;;;;;7.95;100.00;101329.91;5117143;28;20063;-51
2021/12/13 07:11:45;;;;;;;8.13;4.50;;;;;;;8.06;100.00;101324.25;5116481;28;20052;-51
2021/12/13 07:14:17;;;;;;;6.78;3.50;;;;;;;8.05;100.00;101335.72;5116721;28;20414;-48
2021/12/13 07:16:50;;;;;;;8.10;3.67;;;;;;;8.04;100.00;101336.66;5116432;28;20070;-50
2021/12/13 07:19:23;;;;;;;8.15;3.53;;;;;;;8.03;100.00;101332.28;5116328;27;20056;-49
2021/12/13 07:21:56;;;;;;;10.05;4.10;;;;;;;8.00;100.00;101341.16;5116373;28;20056;-51
2021/12/13 07:24:31;;;;;;;11.25;4.60;;;;;;;8.03;100.00;101338.41;5116800;28;20067;-51
2021/12/13 07:27:04;;;;;;;10.38;4.22;;;;;;;8.12;100.00;101338.06;5116486;27;20052;-48
2021/12/13 07:29:44;;;;;;;5.40;3.97;;;;;;;8.10;100.00;101339.03;5116207;28;20064;-50
2021/12/13 07:32:17;;;;;;;11.35;4.15;;;;;;;8.07;100.00;101344.44;5117337;28;20047;-50
2021/12/13 07:34:52;;;;;;;7.70;4.18;;;;;;;8.01;100.00;101342.91;5117268;28;20056;-49
2021/12/13 07:37:43;;;;;;;8.45;4.45;;;;;;;8.03;100.00;101346.34;5116279;28;20055;-51
2021/12/13 07:40:34;;;;;;;13.77;4.53;;;;;;;8.09;100.00;101348.75;5117154;27;20052;-51
2021/12/13 07:43:11;;;;;;;6.50;3.97;;;;;;;8.15;100.00;101348.53;5116621;28;20486;-51
2021/12/13 07:45:46;;;;;;;7.55;3.90;;;;;;;8.18;100.00;101355.47;5116924;28;20066;-51
2021/12/13 07:48:18;;;;;;;8.77;4.78;;;;;;;8.19;100.00;101354.56;5115845;27;20126;-51
2021/12/13 07:50:57;;;;;;;12.02;5.05;;;;;;;8.17;100.00;101361.69;5117122;28;20060;-49
2021/12/13 07:53:28;;;;;;;10.10;5.13;;;;;;;8.18;100.00;101353.66;5115778;28;20062;-49
2021/12/13 07:55:56;;;;;;;7.38;4.32;;;;;;;8.21;100.00;101367.72;5117038;28;20051;-51
2021/12/13 07:58:39;;;;;;;12.98;5.10;;;;;;;8.09;100.00;101364.63;5115782;28;20518;-51
2021/12/13 08:01:16;;;;;;;10.18;5.47;;;;;;;8.12;100.00;101367.16;5116567;28;20059;-51
2021/12/13 08:03:46;;;;;;;10.82;5.15;;;;;;;8.13;100.00;101368.00;5116093;28;20058;-51
2021/12/13 08:06:15;;;;;;;11.48;4.88;;;;;;;8.12;100.00;101369.78;5116441;28;20066;-51
2021/12/13 08:08:50;;;;;;;13.18;6.32;;;;;;;8.18;100.00;101369.53;5115617;28;20052;-51
2021/12/13 08:11:19;;;;;;;11.80;5.65;;;;;;;8.11;100.00;101368.06;5115692;27;20051;-51
2021/12/13 08:13:58;;;;;;;9.43;4.75;;;;;;;8.21;100.00;101383.56;5115973;28;20059;-51
2021/12/13 08:16:33;;;;;;;9.63;4.85;;;;;;;8.21;100.00;101386.22;5115761;28;20066;-51
2021/12/13 08:19:11;;;;;;;9.40;4.85;;;;;;;8.15;100.00;101379.34;5116637;28;20051;-49
2021/12/13 08:21:42;;;;;;;7.72;4.82;;;;;;;8.18;100.00;101382.75;5116332;28;20051;-51
2021/12/13 08:24:21;;;;;;;10.15;4.43;;;;;;;8.15;100.00;101390.81;5116269;28;20074;-51
2021/12/13 08:26:56;;;;;;;8.80;4.22;;;;;;;8.24;100.00;101383.44;5116416;28;20067;-50
2021/12/13 08:29:29;;;;;;;6.95;4.13;;;;;;;8.18;100.00;101385.38;5116534;28;20059;-50
2021/12/13 08:32:01;;;;;;;7.55;4.10;;;;;;;8.16;100.00;101392.53;5116101;28;20059;-50
2021/12/13 08:34:31;;;;;;;7.38;4.45;;;;;;;8.19;100.00;101387.13;5115678;28;20066;-50
2021/12/13 08:37:01;;;;;;;9.10;3.85;;;;;;;8.17;100.00;101403.97;5114849;28;20051;-51
2021/12/13 08:39:32;;;;;;;7.88;3.95;;;;;;;8.27;100.00;101415.03;5115359;28;20407;-51
2021/12/13 08:42:09;;;;;;;4.43;2.67;;;;;;;8.21;100.00;101416.13;5115535;28;20418;-50
2021/12/13 08:44:40;;;;;;;6.75;3.30;;;;;;;8.30;100.00;101425.50;5114969;28;20130;-51
2021/12/13 08:47:12;;;;;;;4.80;2.40;;;;;;;8.23;100.00;101429.31;5114758;28;20126;-51
2021/12/13 08:49:43;;;;;;;4.40;2.47;;;;;;;8.22;100.00;101443.44;5114578;28;20052;-51
2021/12/13 08:52:21;;;;;;;3.93;2.23;;;;;;;8.22;100.00;101443.44;5115542;28;20062;-51
2021/12/13 08:54:54;;;;;;;8.70;2.20;;;;;;;8.22;100.00;101438.13;5114433;28;20051;-51
2021/12/13 08:57:40;;;;;;;5.35;2.83;;;;;;;8.23;100.00;101445.16;5115702;28;20062;-51
2021/12/13 09:00:21;;;;;;;6.30;2.70;;;;;;;8.26;100.00;101450.34;5114841;28;20063;-51
2021/12/13 09:02:58;;;;;;;8.05;3.00;;;;;;;8.17;100.00;101449.75;5115342;28;20063;-50
2021/12/13 09:05:29;;;;;;;6.55;3.08;;;;;;;8.16;100.00;101447.16;5114435;28;20062;-51
2021/12/13 09:08:00;;;;;;;5.13;2.90;;;;;;;8.09;100.00;101448.31;5114914;28;20058;-51
2021/12/13 09:10:43;;;;;;;8.27;3.80;;;;;;;8.15;100.00;101454.25;5114762;28;20063;-49
2021/12/13 09:13:13;;;;;;;5.95;2.85;;;;;;;8.21;100.00;101439.06;5114424;28;20070;-51
2021/12/13 09:15:41;;;;;;;7.30;3.00;;;;;;;8.11;100.00;101442.03;5114978;28;20067;-51
2021/12/13 09:18:23;;;;;;;8.70;4.28;;;;;;;8.17;100.00;101447.13;5115467;28;20059;-51
2021/12/13 09:20:54;;;;;;;8.13;3.05;;;;;;;8.12;100.00;101443.78;5114686;28;20062;-48
2021/12/13 09:23:24;;;;;;;22.67;10.13;;;;;;;8.19;100.00;101449.72;5114309;28;20499;-51
2021/12/13 09:25:54;;;;;;;10.27;4.60;;;;;;;8.27;100.00;101449.41;5114110;28;20055;-51
2021/12/13 09:28:33;;;;;;;10.10;4.40;;;;;;;8.33;100.00;101446.53;5118333;28;20063;-48
2021/12/13 09:31:04;;;;;;;5.88;3.22;;;;;;;8.26;100.00;101435.31;5118513;28;20051;-51
2021/12/13 09:33:37;;;;;;;6.28;3.38;;;;;;;8.39;100.00;101448.97;5119170;28;20047;-49
2021/12/13 09:36:07;;;;;;;6.15;3.17;;;;;;;8.42;100.00;101451.47;5118462;28;20063;-51
2021/12/13 09:38:46;;;;;;;5.25;3.17;;;;;;;8.44;100.00;101454.06;5118627;28;20056;-51
2021/12/13 09:41:28;;;;;;;5.30;2.90;;;;;;;8.47;100.00;101454.84;5119504;28;20144;-51
2021/12/13 09:44:01;;;;;;;5.75;3.28;;;;;;;8.52;100.00;101463.47;5118571;28;20418;-50
2021/12/13 09:46:35;;;;;;;4.47;2.60;;;;;;;8.50;100.00;101469.72;5118160;28;20514;-50
2021/12/13 09:49:08;;;;;;;4.78;2.50;;;;;;;8.51;100.00;101480.25;5118192;28;20058;-51
2021/12/13 09:51:41;;;;;;;4.40;2.88;;;;;;;8.36;100.00;101483.44;5118125;28;20056;-50
2021/12/13 09:54:13;;;;;;;5.10;2.90;;;;;;;8.38;100.00;101484.22;5119224;28;20052;-51
2021/12/13 09:56:49;;;;;;;5.80;3.08;;;;;;;8.42;100.00;101485.84;5118293;28;20427;-51
2021/12/13 09:59:23;;;;;;;8.30;3.38;;;;;;;8.35;100.00;101487.88;5119232;28;20055;-51
2021/12/13 10:01:52;;;;;;;6.65;2.90;;;;;;;8.41;100.00;101500.00;5119007;28;20074;-51
2021/12/13 10:04:28;;;;;;;6.53;3.30;;;;;;;8.45;100.00;101491.03;5118153;28;20068;-49
2021/12/13 10:07:00;;;;;;;6.63;3.20;;;;;;;8.39;100.00;101493.91;5118382;28;20415;-49
2021/12/13 10:09:34;;;;;;;7.03;3.58;;;;;;;8.41;100.00;101502.63;5119253;28;20384;-51
2021/12/13 10:12:07;;;;;;;5.68;3.10;;;;;;;8.38;100.00;101497.44;5118051;28;20519;-50
2021/12/13 10:14:38;;;;;;;5.93;3.33;;;;;;;8.42;100.00;101504.34;5117961;28;20056;-50
2021/12/13 10:17:08;;;;;;;7.28;2.95;;;;;;;8.44;100.00;101512.25;5118156;28;20063;-50
2021/12/13 10:19:42;;;;;;;7.13;3.35;;;;;;;8.51;100.00;101504.03;5117530;28;20071;-51
2021/12/13 10:22:13;;;;;;;5.82;2.45;;;;;;;8.53;100.00;101507.47;5118412;28;20083;-51
2021/12/13 10:24:43;;;;;;;4.97;2.40;;;;;;;8.52;100.00;101505.78;5117448;28;20468;-49
2021/12/13 10:27:14;;;;;;;9.20;3.00;;;;;;;8.42;100.00;101493.75;5117400;27;20081;-51
2021/12/13 10:29:46;;;;;;;6.82;3.20;;;;;;;8.39;100.00;101493.91;5117322;28;20525;-51
2021/12/13 10:32:17;;;;;;;3.63;2.00;;;;;;;8.49;100.00;101494.44;5118217;28;20059;-48
2021/12/13 10:34:49;;;;;;;5.03;2.03;;;;;;;8.65;100.00;101497.38;5118736;28;20051;-51
2021/12/13 10:37:21;;;;;;;3.42;1.80;;;;;;;8.73;100.00;101497.94;5117975;28;20285;-51
2021/12/13 10:39:52;;;;;;;4.10;2.15;;;;;;;8.64;100.00;101495.63;5115962;28;20063;-51
2021/12/13 10:42:24;;;;;;;4.10;1.60;;;;;;;8.62;100.00;101478.97;5118246;28;20056;-48
2021/12/13 10:44:53;;;;;;;2.67;1.40;;;;;;;8.75;100.00;101490.78;5117382;28;20162;-51
2021/12/13 10:47:24;;;;;;;4.03;1.63;;;;;;;8.70;100.00;101485.69;5118085;28;20059;-48
2021/12/13 10:49:54;;;;;;;2.17;1.03;;;;;;;8.92;98.92;101477.75;5118122;28;20051;-50
2021/12/13 10:52:26;;;;;;;2.78;1.00;;;;;;;8.88;97.56;101472.66;5116878;28;20059;-51
2021/12/13 10:54:59;;;;;;;2.00;1.00;;;;;;;8.91;98.51;101469.91;5117842;28;20056;-51
2021/12/13 10:57:31;;;;;;;2.47;1.02;;;;;;;9.10;98.33;101467.38;5116789;28;20067;-51
2021/12/13 11:00:00;;;;;;;1.40;1.00;;;;;;;9.16;96.25;101459.16;5117510;28;20055;-51
2021/12/13 11:02:32;;;;;;;3.35;1.25;;;;;;;8.81;98.28;101473.81;5117271;28;20071;-51
2021/12/13 11:05:06;;;;;;;2.20;0.98;;;;;;;9.06;98.06;101463.09;5117899;28;20056;-51
2021/12/13 11:07:35;;;;;;;1.88;1.00;;;;;;;9.19;97.01;101464.34;5116895;27;20056;-50
2021/12/13 11:10:04;;;;;;;2.78;1.25;;;;;;;9.07;97.18;101463.06;5117437;28;20055;-49
2021/12/13 11:12:37;;;;;;;2.75;1.40;;;;;;;9.25;95.87;101458.78;5117057;28;20491;-51
2021/12/13 11:15:08;;;;;;;2.08;1.17;;;;;;;8.94;97.34;101464.47;5116464;28;20058;-51
2021/12/13 11:17:37;;;;;;;2.55;1.17;;;;;;;8.87;97.85;101455.91;5116481;28;20506;-51
2021/12/13 11:20:12;;;;;;;2.15;1.20;;;;;;;8.88;97.35;101454.16;5117202;28;20129;-51
2021/12/13 11:22:41;;;;;;;2.50;1.27;;;;;;;9.04;97.10;101449.09;5116342;28;20059;-51
2021/12/13 11:25:14;;;;;;;2.47;1.35;;;;;;;9.11;96.26;101450.53;5117344;28;20051;-50
2021/12/13 11:27:43;;;;;;;1.48;1.00;;;;;;;9.11;96.94;101440.84;5116259;28;20506;-51
2021/12/13 11:30:15;;;;;;;2.67;1.35;;;;;;;9.09;97.53;101436.53;5116477;27;20052;-54
2021/12/13 11:33:39;;;;;;;2.45;1.13;;;;;;;9.14;97.02;101429.25;5117066;28;20055;-50
2021/12/13 11:36:39;;;;;;;2.75;1.40;;;;;;;9.28;95.45;101431.34;5117449;28;20052;-51
2021/12/13 11:39:28;;;;;;;4.47;1.80;;;;;;;9.36;93.99;101433.66;5116297;28;20062;-51
2021/12/13 11:42:29;;;;;;;4.35;1.98;;;;;;;8.98;97.30;101438.75;5117441;28;20051;-49
2021/12/13 11:45:21;;;;;;;5.13;2.10;;;;;;;9.02;97.76;101437.72;5072885;28;20058;-51
2021/12/13 11:48:09;;;;;;;5.55;1.75;;;;;;;9.01;98.21;101435.97;5116415;28;20063;-51
2021/12/13 11:51:03;;;;;;;4.03;2.10;;;;;;;9.09;98.02;101439.16;5115516;28;20538;-51
2021/12/13 11:54:00;;;;;;;3.38;1.95;;;;;;;9.18;97.80;101435.28;5115760;28;20426;-49
2021/12/13 11:56:56;;;;;;;2.30;1.33;;;;;;;9.25;96.92;101442.06;5115718;28;20059;-49
2021/12/13 11:59:36;;;;;;;7.18;1.77;;;;;;;9.07;97.24;101438.38;5098560;28;20062;-51